Time;durP1;ratioP1;P1;durP2;ratioP2;P2;SDS_P1;SDS_P2;PMS_P1;PMS_P2;Temp;Humidity;BMP_temperature;BMP_pressure;BME280_temperature;BME280_humidity;BME280_pressure;Samples;Min_cycle;Max_cycle;Signal;HPM_P1;HPM_P2
2022/08/09 00:02:19;;;;;;;7.82;5.35;;;;;;;17.54;71.47;102632.47;5107995;28;20036;-56
2022/08/09 00:04:44;;;;;;;8.55;5.15;;;;;;;17.51;71.56;102627.44;5103956;28;20024;-57
2022/08/09 00:07:09;;;;;;;7.63;5.50;;;;;;;17.45;71.82;102628.09;5105519;28;20476;-56
2022/08/09 00:09:35;;;;;;;8.90;5.28;;;;;;;17.36;72.27;102624.53;5109429;27;20131;-57
2022/08/09 00:12:00;;;;;;;11.07;5.40;;;;;;;17.37;72.16;102625.41;5105191;28;20483;-58
2022/08/09 00:14:25;;;;;;;7.82;5.03;;;;;;;17.42;71.97;102623.06;5109115;28;20024;-58
2022/08/09 00:16:50;;;;;;;9.35;5.35;;;;;;;17.33;72.17;102623.03;5109941;28;20027;-56
2022/08/09 00:19:16;;;;;;;8.68;5.40;;;;;;;17.32;72.52;102618.66;5110483;27;20035;-58
2022/08/09 00:21:41;;;;;;;10.23;5.10;;;;;;;17.25;72.30;102624.84;5107587;27;20027;-58
2022/08/09 00:24:07;;;;;;;8.32;5.47;;;;;;;17.21;72.60;102624.31;5109530;28;20490;-57
2022/08/09 00:26:32;;;;;;;8.18;5.25;;;;;;;17.03;73.24;102624.44;5112187;28;20035;-56
2022/08/09 00:28:59;;;;;;;7.68;5.35;;;;;;;17.16;72.63;102626.66;5112706;27;20030;-58
2022/08/09 00:31:25;;;;;;;7.35;5.32;;;;;;;17.01;72.96;102621.88;5108466;27;20028;-57
2022/08/09 00:33:51;;;;;;;8.30;5.35;;;;;;;17.07;72.81;102615.91;5104007;28;20424;-56
2022/08/09 00:36:16;;;;;;;11.38;5.70;;;;;;;17.06;72.82;102614.22;5113183;28;20028;-56
2022/08/09 00:38:42;;;;;;;8.18;5.07;;;;;;;17.06;72.44;102619.59;5110263;28;20038;-58
2022/08/09 00:41:08;;;;;;;8.63;4.97;;;;;;;16.99;72.83;102618.53;5104923;27;20553;-58
2022/08/09 00:43:36;;;;;;;10.55;4.93;;;;;;;17.01;72.80;102627.25;5110703;28;20028;-57
2022/08/09 00:46:01;;;;;;;11.65;5.40;;;;;;;16.94;72.88;102628.88;5113470;28;20617;-57
2022/08/09 00:48:26;;;;;;;9.45;5.60;;;;;;;16.92;73.47;102622.84;5102169;28;20053;-56
2022/08/09 00:50:52;;;;;;;9.90;5.32;;;;;;;16.81;73.28;102611.41;5108139;27;20472;-57
2022/08/09 00:53:17;;;;;;;9.10;5.30;;;;;;;16.89;73.38;102628.53;5112679;28;20035;-58
2022/08/09 00:55:43;;;;;;;8.15;5.38;;;;;;;16.72;73.84;102617.72;5108046;28;20028;-57
2022/08/09 00:58:08;;;;;;;8.63;5.43;;;;;;;16.74;73.92;102621.09;5111521;28;20111;-57
2022/08/09 01:00:36;;;;;;;10.70;5.50;;;;;;;16.69;73.99;102620.72;5104096;27;20080;-56
2022/08/09 01:03:16;;;;;;;8.13;5.32;;;;;;;16.70;73.99;102629.59;5089290;28;20058;-57
2022/08/09 01:06:03;;;;;;;8.80;5.10;;;;;;;16.74;73.61;102620.25;5104111;28;20028;-59
2022/08/09 01:08:44;;;;;;;8.70;5.50;;;;;;;16.73;74.15;102614.03;5105131;28;20118;-57
2022/08/09 01:11:45;;;;;;;7.13;5.35;;;;;;;16.69;73.88;102618.06;5107864;27;20081;-56
2022/08/09 01:14:25;;;;;;;10.18;5.60;;;;;;;16.53;74.77;102621.47;5098200;28;20031;-58
2022/08/09 01:16:55;;;;;;;5.53;5.03;;;;;;;16.61;74.54;102615.31;5102490;28;20138;-57
2022/08/09 01:19:45;;;;;;;6.03;5.20;;;;;;;16.69;74.01;102623.41;5108680;27;20040;-56
2022/08/09 01:22:15;;;;;;;10.50;5.40;;;;;;;16.64;73.63;102626.53;5116924;27;20076;-57
2022/08/09 01:25:05;;;;;;;6.90;5.55;;;;;;;16.59;74.00;102611.97;5105468;28;20119;-57
2022/08/09 01:27:32;;;;;;;11.40;5.93;;;;;;;16.55;74.08;102624.81;5108828;28;20506;-56
2022/08/09 01:30:00;;;;;;;8.63;5.22;;;;;;;16.46;74.09;102625.75;5103692;28;20040;-57
2022/08/09 01:32:33;;;;;;;7.13;5.50;;;;;;;16.49;73.94;102618.25;5108613;28;20031;-57
2022/08/09 01:35:02;;;;;;;8.50;5.30;;;;;;;16.46;74.21;102623.94;5107522;28;20084;-57
2022/08/09 01:37:29;;;;;;;8.23;5.20;;;;;;;16.52;74.32;102617.09;5102464;28;20502;-56
2022/08/09 01:39:57;;;;;;;7.38;5.35;;;;;;;16.50;74.40;102619.94;5099636;27;20433;-57
2022/08/09 01:42:23;;;;;;;7.78;5.30;;;;;;;16.43;74.62;102613.50;5111100;28;20044;-57
2022/08/09 01:44:51;;;;;;;10.45;5.72;;;;;;;16.49;74.24;102617.41;5111395;28;20043;-57
2022/08/09 01:47:17;;;;;;;8.85;5.70;;;;;;;16.40;74.30;102614.66;5108386;28;20024;-56
2022/08/09 01:49:46;;;;;;;9.38;5.28;;;;;;;16.47;74.30;102620.25;5108693;27;20503;-57
2022/08/09 01:52:15;;;;;;;7.97;5.28;;;;;;;16.35;74.70;102610.78;5089377;28;20019;-58
2022/08/09 01:54:47;;;;;;;8.70;5.10;;;;;;;16.43;74.08;102618.88;5100952;28;20031;-57
2022/08/09 01:57:19;;;;;;;9.90;5.45;;;;;;;16.40;74.67;102624.56;5106303;28;20484;-59
2022/08/09 01:59:49;;;;;;;9.40;5.38;;;;;;;16.39;74.20;102622.88;5105009;28;20054;-59
2022/08/09 02:02:15;;;;;;;9.63;5.47;;;;;;;16.39;74.14;102623.69;5109281;28;20043;-57
2022/08/09 02:04:42;;;;;;;11.82;5.70;;;;;;;16.16;75.16;102627.88;5102887;28;20032;-57
2022/08/09 02:07:15;;;;;;;7.10;5.50;;;;;;;16.29;74.55;102622.13;5106320;28;20137;-57
2022/08/09 02:09:50;;;;;;;7.15;5.60;;;;;;;16.28;74.50;102631.97;5111737;28;20031;-58
2022/08/09 02:12:17;;;;;;;7.47;5.28;;;;;;;16.19;74.36;102632.94;5108301;28;20028;-57
2022/08/09 02:14:46;;;;;;;9.63;5.10;;;;;;;16.21;74.61;102626.44;5111532;28;20032;-56
2022/08/09 02:17:12;;;;;;;6.30;5.30;;;;;;;16.21;74.79;102631.78;5110827;28;20042;-58
2022/08/09 02:19:38;;;;;;;8.75;5.20;;;;;;;16.24;74.55;102634.13;5113545;27;20035;-56
2022/08/09 02:22:13;;;;;;;10.23;5.35;;;;;;;16.16;75.24;102628.72;5118851;27;20376;-56
2022/08/09 02:24:42;;;;;;;7.20;5.32;;;;;;;16.11;75.14;102631.88;5115067;28;20040;-58
2022/08/09 02:27:09;;;;;;;7.40;5.15;;;;;;;16.16;74.63;102627.88;5113897;28;20092;-57
2022/08/09 02:29:42;;;;;;;9.25;5.53;;;;;;;15.97;75.65;102625.22;5111688;27;20115;-57
2022/08/09 02:32:09;;;;;;;7.05;5.10;;;;;;;16.06;75.36;102627.97;5110528;28;20035;-57
2022/08/09 02:34:37;;;;;;;7.00;5.30;;;;;;;15.94;75.48;102614.00;5107365;28;20107;-56
2022/08/09 02:37:08;;;;;;;5.70;5.10;;;;;;;15.97;75.03;102614.53;5112318;28;20099;-56
2022/08/09 02:39:48;;;;;;;8.60;5.43;;;;;;;15.99;75.29;102620.56;5112100;27;20027;-59
2022/08/09 02:42:18;;;;;;;7.40;5.32;;;;;;;15.92;75.70;102616.81;5105467;28;20106;-57
2022/08/09 02:44:48;;;;;;;8.85;5.78;;;;;;;15.85;76.00;102615.72;5114823;28;20120;-57
2022/08/09 02:47:17;;;;;;;8.82;5.57;;;;;;;15.67;76.51;102608.53;5114114;28;20081;-58
2022/08/09 02:49:51;;;;;;;7.47;5.72;;;;;;;15.91;76.14;102619.59;5103810;27;20035;-56
2022/08/09 02:52:18;;;;;;;7.45;5.90;;;;;;;15.81;76.30;102619.69;5112664;28;20476;-58
2022/08/09 02:54:45;;;;;;;11.25;6.32;;;;;;;15.58;77.02;102620.13;5113077;28;20115;-57
2022/08/09 02:57:12;;;;;;;8.93;5.93;;;;;;;15.58;77.49;102609.44;5111576;28;20038;-59
2022/08/09 02:59:39;;;;;;;8.40;6.25;;;;;;;15.62;77.10;102613.50;5109773;27;20040;-56
2022/08/09 03:02:06;;;;;;;9.50;6.38;;;;;;;15.64;76.96;102616.84;5111322;28;20043;-57
2022/08/09 03:04:34;;;;;;;8.02;6.25;;;;;;;15.62;77.63;102616.16;5111752;28;20799;-56
2022/08/09 03:07:02;;;;;;;7.88;6.20;;;;;;;15.61;77.37;102614.50;5111575;28;20036;-57
2022/08/09 03:09:29;;;;;;;8.77;5.97;;;;;;;15.54;77.47;102613.41;5110793;27;20036;-59
2022/08/09 03:11:56;;;;;;;9.15;6.00;;;;;;;15.54;77.50;102614.25;5106179;28;20043;-57
2022/08/09 03:14:24;;;;;;;9.55;6.03;;;;;;;15.53;77.92;102606.38;5113325;28;20114;-57
2022/08/09 03:16:50;;;;;;;9.48;6.88;;;;;;;15.51;78.21;102614.56;5106580;28;20026;-57
2022/08/09 03:19:19;;;;;;;10.75;6.80;;;;;;;15.47;77.92;102613.16;5112179;27;20028;-59
2022/08/09 03:21:49;;;;;;;9.13;6.25;;;;;;;15.45;78.42;102615.16;5111294;28;20039;-57
2022/08/09 03:24:15;;;;;;;12.25;7.05;;;;;;;15.35;78.77;102614.38;5102037;28;20407;-56
2022/08/09 03:26:41;;;;;;;8.90;6.45;;;;;;;15.28;79.03;102614.13;5106268;28;20452;-56
2022/08/09 03:29:07;;;;;;;11.75;6.95;;;;;;;15.29;78.82;102615.81;5103828;27;20038;-57
2022/08/09 03:31:33;;;;;;;9.68;6.50;;;;;;;15.37;78.66;102617.72;5119048;27;20043;-58
2022/08/09 03:34:01;;;;;;;9.75;6.80;;;;;;;15.33;79.18;102615.38;5113195;28;20040;-57
2022/08/09 03:36:27;;;;;;;10.35;6.60;;;;;;;15.37;78.63;102613.22;5112144;28;20024;-58
2022/08/09 03:38:52;;;;;;;11.43;6.45;;;;;;;15.40;78.90;102612.91;5111035;28;20567;-56
2022/08/09 03:41:17;;;;;;;10.82;6.53;;;;;;;15.40;78.41;102618.25;5102138;28;20028;-58
2022/08/09 03:43:46;;;;;;;10.05;6.90;;;;;;;15.26;79.10;102618.78;5109975;27;20444;-56
2022/08/09 03:46:11;;;;;;;9.70;6.65;;;;;;;15.33;78.75;102617.19;5109210;28;20032;-56
2022/08/09 03:48:38;;;;;;;10.38;6.88;;;;;;;15.35;78.91;102623.25;5112397;28;20032;-56
2022/08/09 03:51:06;;;;;;;11.73;6.20;;;;;;;15.31;78.87;102624.53;5112175;27;20081;-57
2022/08/09 03:53:32;;;;;;;12.35;6.72;;;;;;;15.25;79.38;102625.13;5112867;28;20116;-56
2022/08/09 03:55:58;;;;;;;10.57;6.80;;;;;;;15.28;78.85;102622.13;5107586;28;20077;-57
2022/08/09 03:58:23;;;;;;;8.82;6.70;;;;;;;15.29;79.33;102626.50;5105949;28;20396;-57
2022/08/09 04:00:49;;;;;;;10.13;6.90;;;;;;;15.24;79.47;102623.44;5110948;27;20077;-56
2022/08/09 04:03:16;;;;;;;10.77;6.82;;;;;;;15.26;79.56;102627.66;5111994;28;20061;-56
2022/08/09 04:05:41;;;;;;;11.25;6.60;;;;;;;15.19;79.74;102624.72;5102983;28;20035;-57
2022/08/09 04:08:06;;;;;;;10.15;6.70;;;;;;;15.25;79.32;102617.09;5108257;28;20020;-56
2022/08/09 04:10:32;;;;;;;10.23;6.85;;;;;;;15.20;79.06;102618.38;5112767;27;20450;-56
2022/08/09 04:12:59;;;;;;;10.23;6.95;;;;;;;15.18;79.46;102615.03;5103759;28;20024;-58
2022/08/09 04:15:24;;;;;;;10.63;6.75;;;;;;;15.12;80.03;102623.63;5104119;28;20027;-58
2022/08/09 04:17:50;;;;;;;8.88;7.05;;;;;;;15.08;80.09;102616.91;5104523;28;20050;-57
2022/08/09 04:20:16;;;;;;;11.70;7.13;;;;;;;15.11;79.67;102611.28;5108417;27;20039;-58
2022/08/09 04:22:43;;;;;;;9.73;7.28;;;;;;;15.03;80.03;102616.50;5108688;28;20035;-59
2022/08/09 04:25:09;;;;;;;10.82;7.25;;;;;;;15.03;80.62;102621.84;5106210;28;20046;-57
2022/08/09 04:27:39;;;;;;;15.13;7.57;;;;;;;15.01;80.61;102626.50;5106019;28;20500;-57
2022/08/09 04:30:09;;;;;;;11.20;7.03;;;;;;;15.03;80.50;102632.53;5104857;27;20069;-58
2022/08/09 04:32:35;;;;;;;10.57;7.35;;;;;;;14.99;80.45;102631.16;5110183;28;20028;-57
2022/08/09 04:35:00;;;;;;;12.18;7.30;;;;;;;14.99;80.73;102633.81;5101397;28;20043;-58
2022/08/09 04:37:25;;;;;;;12.20;7.68;;;;;;;14.97;80.85;102633.13;5104162;28;20102;-58
2022/08/09 04:39:51;;;;;;;9.57;7.10;;;;;;;14.97;80.46;102638.44;5105288;27;20028;-58
2022/08/09 04:42:16;;;;;;;10.48;7.38;;;;;;;14.95;80.86;102640.44;5104004;28;20052;-56
2022/08/09 04:44:41;;;;;;;10.98;7.70;;;;;;;14.98;80.75;102642.81;5102319;28;20039;-57
2022/08/09 04:47:06;;;;;;;10.82;7.43;;;;;;;14.95;81.04;102640.44;5108166;28;20548;-57
2022/08/09 04:49:35;;;;;;;12.75;7.78;;;;;;;14.97;80.96;102643.81;5109556;27;20015;-59
2022/08/09 04:52:01;;;;;;;9.02;7.38;;;;;;;15.00;81.06;102646.19;5100207;28;20035;-58
2022/08/09 04:54:27;;;;;;;11.10;7.57;;;;;;;15.03;80.95;102648.56;5106171;28;20156;-57
2022/08/09 04:56:52;;;;;;;10.32;7.32;;;;;;;15.06;80.86;102650.94;5113101;28;20043;-58
2022/08/09 04:59:17;;;;;;;11.93;7.80;;;;;;;14.97;80.95;102647.31;5104901;27;20681;-57
2022/08/09 05:01:42;;;;;;;12.63;7.90;;;;;;;14.93;81.63;102648.59;5108583;28;20032;-56
2022/08/09 05:04:07;;;;;;;11.10;7.85;;;;;;;15.00;81.59;102655.03;5109130;28;20023;-56
2022/08/09 05:06:33;;;;;;;13.23;7.68;;;;;;;15.04;81.43;102655.56;5108452;28;20015;-58
2022/08/09 05:08:58;;;;;;;10.07;7.82;;;;;;;15.03;81.01;102659.25;5110094;28;20024;-58
2022/08/09 05:11:26;;;;;;;13.70;8.02;;;;;;;15.06;81.43;102664.31;5105094;28;20525;-57
2022/08/09 05:13:52;;;;;;;12.52;7.65;;;;;;;15.05;81.75;102667.97;5110016;28;20032;-59
2022/08/09 05:16:17;;;;;;;11.65;8.00;;;;;;;15.06;81.35;102664.31;5103237;28;20097;-57
2022/08/09 05:18:42;;;;;;;10.60;8.38;;;;;;;15.04;81.70;102668.94;5112416;28;20031;-58
2022/08/09 05:21:08;;;;;;;14.05;8.18;;;;;;;15.08;81.50;102667.66;5099169;28;20643;-59
2022/08/09 05:23:33;;;;;;;13.55;8.38;;;;;;;15.12;81.57;102662.88;5101800;28;20697;-58
2022/08/09 05:25:58;;;;;;;12.88;8.63;;;;;;;15.08;82.09;102665.00;5100376;28;20027;-58
2022/08/09 05:28:23;;;;;;;13.07;8.40;;;;;;;15.09;82.09;102666.66;5110673;28;20027;-60
2022/08/09 05:30:49;;;;;;;12.90;8.60;;;;;;;15.08;81.81;102673.00;5107617;28;20027;-57
2022/08/09 05:33:14;;;;;;;12.20;8.65;;;;;;;15.06;82.22;102664.31;5111936;28;20024;-58
2022/08/09 05:35:39;;;;;;;13.82;9.60;;;;;;;15.14;82.35;102660.91;5111212;28;20028;-58
2022/08/09 05:38:05;;;;;;;16.35;9.40;;;;;;;15.13;82.02;102660.06;5110804;28;20035;-57
2022/08/09 05:40:30;;;;;;;14.63;9.10;;;;;;;15.17;82.49;102660.59;5110041;27;20039;-57
2022/08/09 05:42:56;;;;;;;14.40;9.50;;;;;;;15.12;83.71;102669.06;5107748;28;20032;-59
2022/08/09 05:45:22;;;;;;;17.15;9.40;;;;;;;15.18;83.25;102675.63;5102252;28;20144;-57
2022/08/09 05:47:47;;;;;;;12.40;9.20;;;;;;;15.18;83.46;102672.97;5103250;28;20020;-56
2022/08/09 05:50:13;;;;;;;13.48;9.45;;;;;;;15.19;82.84;102672.81;5108996;27;20381;-58
2022/08/09 05:52:39;;;;;;;15.23;9.48;;;;;;;15.32;82.83;102668.97;5109588;28;20464;-57
2022/08/09 05:55:06;;;;;;;13.93;9.43;;;;;;;15.41;82.75;102662.75;5110082;28;20028;-57
2022/08/09 05:57:33;;;;;;;13.60;9.23;;;;;;;15.50;82.48;102674.38;5104486;28;20540;-57
2022/08/09 05:59:58;;;;;;;15.68;9.68;;;;;;;15.57;81.90;102677.28;5103242;27;20032;-57
2022/08/09 06:02:23;;;;;;;14.80;9.75;;;;;;;15.59;81.91;102675.28;5108050;28;20068;-57
2022/08/09 06:04:48;;;;;;;13.48;9.20;;;;;;;15.68;82.18;102687.75;5107116;28;20023;-57
2022/08/09 06:07:13;;;;;;;13.48;9.23;;;;;;;15.73;81.86;102680.13;5103249;28;20028;-57
2022/08/09 06:09:39;;;;;;;15.55;9.88;;;;;;;15.83;81.45;102682.75;5102139;28;20028;-58
2022/08/09 06:12:05;;;;;;;13.85;9.30;;;;;;;15.89;81.82;102680.47;5101057;28;20511;-57
2022/08/09 06:14:30;;;;;;;12.73;9.73;;;;;;;15.97;81.26;102697.47;5106922;28;20463;-57
2022/08/09 06:16:55;;;;;;;13.38;9.95;;;;;;;16.04;81.79;102688.84;5099142;28;20506;-58
2022/08/09 06:19:20;;;;;;;15.60;9.98;;;;;;;16.09;80.71;102683.88;5108909;28;20028;-56
2022/08/09 06:21:46;;;;;;;14.95;9.90;;;;;;;16.10;80.47;102693.56;5107558;28;20133;-57
2022/08/09 06:24:12;;;;;;;14.32;9.82;;;;;;;16.11;80.71;102692.56;5108226;28;20070;-57
2022/08/09 06:26:40;;;;;;;15.30;9.88;;;;;;;16.16;81.40;102695.63;5107854;28;20076;-57
2022/08/09 06:29:07;;;;;;;13.60;10.00;;;;;;;16.26;80.62;102699.06;5108177;28;20016;-57
2022/08/09 06:31:34;;;;;;;17.80;9.80;;;;;;;16.30;80.59;102698.75;5099586;28;20130;-59
2022/08/09 06:33:59;;;;;;;18.98;10.45;;;;;;;16.35;81.24;102697.31;5106750;28;20024;-58
2022/08/09 06:36:25;;;;;;;14.57;9.80;;;;;;;16.40;81.22;102699.53;5108286;28;20424;-58
2022/08/09 06:38:50;;;;;;;16.15;10.25;;;;;;;16.50;81.64;102700.28;5102868;28;20735;-57
2022/08/09 06:41:16;;;;;;;14.70;10.73;;;;;;;16.52;79.67;102697.41;5100858;28;20024;-58
2022/08/09 06:43:41;;;;;;;16.55;10.32;;;;;;;16.57;80.11;102705.00;5096987;28;20085;-57
2022/08/09 06:46:06;;;;;;;17.27;10.05;;;;;;;16.62;79.87;102702.72;5108487;28;20107;-57
2022/08/09 06:48:31;;;;;;;15.68;10.20;;;;;;;16.67;79.06;102695.03;5106013;28;20415;-58
2022/08/09 06:50:58;;;;;;;16.08;9.85;;;;;;;16.66;79.86;102698.69;5099292;28;20350;-56
2022/08/09 06:53:25;;;;;;;16.85;10.20;;;;;;;16.70;79.64;102694.72;5103712;28;20030;-57
2022/08/09 06:55:50;;;;;;;14.30;10.60;;;;;;;16.79;80.15;102704.47;5087629;28;20140;-58
2022/08/09 06:58:15;;;;;;;14.93;9.50;;;;;;;16.89;79.57;102698.19;5102335;28;20051;-56
2022/08/09 07:00:41;;;;;;;15.60;10.27;;;;;;;16.99;79.30;102704.28;5107454;27;20483;-57
2022/08/09 07:03:06;;;;;;;15.63;10.18;;;;;;;17.06;79.67;102710.72;5112514;28;20037;-58
2022/08/09 07:05:31;;;;;;;19.02;10.55;;;;;;;17.11;78.61;102710.22;5112012;28;20429;-57
2022/08/09 07:07:56;;;;;;;17.17;9.70;;;;;;;17.24;78.62;102715.16;5103039;28;20027;-57
2022/08/09 07:10:22;;;;;;;16.33;10.30;;;;;;;17.28;78.23;102713.84;5105021;28;20080;-56
2022/08/09 07:12:48;;;;;;;17.70;10.07;;;;;;;17.37;77.96;102721.94;5102427;28;20042;-58
2022/08/09 07:15:13;;;;;;;16.42;10.23;;;;;;;17.41;77.91;102720.63;5102438;28;20049;-58
2022/08/09 07:17:39;;;;;;;16.25;10.23;;;;;;;17.44;76.54;102723.81;5108205;28;20384;-57
2022/08/09 07:20:04;;;;;;;16.73;11.20;;;;;;;17.51;76.51;102721.31;5108293;28;20050;-58
2022/08/09 07:22:30;;;;;;;17.08;10.15;;;;;;;17.57;77.70;102717.97;5102228;28;20038;-57
2022/08/09 07:24:55;;;;;;;16.70;10.35;;;;;;;17.61;76.58;102713.97;5108834;28;20449;-57
2022/08/09 07:27:21;;;;;;;17.75;10.43;;;;;;;17.66;76.77;102716.16;5113126;28;20040;-56
2022/08/09 07:29:46;;;;;;;14.48;9.60;;;;;;;17.77;77.18;102716.88;5116461;27;20030;-57
2022/08/09 07:32:11;;;;;;;15.45;9.68;;;;;;;17.83;75.37;102717.06;5107677;28;20059;-57
2022/08/09 07:34:37;;;;;;;15.68;9.75;;;;;;;17.96;76.58;102716.56;5114926;28;20015;-57
2022/08/09 07:37:02;;;;;;;17.05;9.73;;;;;;;18.09;76.36;102728.69;5105701;28;20027;-56
2022/08/09 07:39:27;;;;;;;14.15;9.30;;;;;;;18.18;75.87;102721.50;5109992;28;20507;-56
2022/08/09 07:41:53;;;;;;;13.85;9.38;;;;;;;18.25;74.87;102722.50;5111651;28;20038;-58
2022/08/09 07:44:18;;;;;;;14.65;9.85;;;;;;;18.25;74.26;102720.66;5112629;28;20048;-57
2022/08/09 07:46:43;;;;;;;16.08;9.65;;;;;;;18.37;74.34;102723.88;5102751;28;20023;-56
2022/08/09 07:49:09;;;;;;;17.50;10.15;;;;;;;18.40;74.39;102720.84;5109464;28;20375;-56
2022/08/09 07:51:34;;;;;;;13.32;9.23;;;;;;;18.53;74.42;102722.19;5108570;28;20456;-59
2022/08/09 07:54:00;;;;;;;15.10;9.65;;;;;;;18.59;73.13;102721.50;5106409;28;20096;-56
2022/08/09 07:56:26;;;;;;;14.63;9.50;;;;;;;18.65;72.21;102726.19;5114954;28;20020;-57
2022/08/09 07:58:52;;;;;;;17.08;9.82;;;;;;;18.73;72.73;102725.34;5115171;28;20059;-57
2022/08/09 08:01:18;;;;;;;14.20;9.85;;;;;;;18.80;72.74;102725.53;5107205;28;20067;-57
2022/08/09 08:03:44;;;;;;;13.93;9.18;;;;;;;18.84;71.74;102729.53;5109634;28;20019;-57
2022/08/09 08:06:09;;;;;;;13.10;9.50;;;;;;;18.84;71.63;102742.97;5111218;28;20038;-57
2022/08/09 08:08:34;;;;;;;13.40;8.75;;;;;;;18.94;72.35;102734.72;5110086;28;20024;-57
2022/08/09 08:11:00;;;;;;;15.85;9.50;;;;;;;19.02;72.13;102736.56;5111708;28;20118;-57
2022/08/09 08:13:25;;;;;;;16.25;9.40;;;;;;;19.09;71.31;102726.81;5097447;28;20097;-58
2022/08/09 08:15:51;;;;;;;13.85;9.48;;;;;;;19.09;71.83;102732.19;5109946;28;20119;-57
2022/08/09 08:18:16;;;;;;;16.35;9.45;;;;;;;19.24;72.51;102728.81;5113977;28;20033;-57
2022/08/09 08:20:41;;;;;;;14.23;8.50;;;;;;;19.29;71.66;102729.13;5107037;27;20032;-58
2022/08/09 08:23:07;;;;;;;13.50;8.68;;;;;;;19.41;73.50;102730.41;5109120;28;20110;-58
2022/08/09 08:25:34;;;;;;;15.70;8.80;;;;;;;19.48;70.05;102726.00;5107758;28;20370;-57
2022/08/09 08:27:59;;;;;;;12.98;8.18;;;;;;;19.60;70.15;102728.31;5106180;28;20528;-58
2022/08/09 08:30:24;;;;;;;13.13;8.38;;;;;;;19.71;69.67;102721.69;5105425;27;20020;-58
2022/08/09 08:32:51;;;;;;;13.45;7.57;;;;;;;19.76;68.89;102717.47;5108490;28;20078;-58
2022/08/09 08:35:17;;;;;;;13.80;8.35;;;;;;;19.79;68.76;102715.44;5107133;28;20488;-58
2022/08/09 08:37:42;;;;;;;13.25;7.70;;;;;;;19.90;68.57;102723.91;5100464;28;20043;-59
2022/08/09 08:40:08;;;;;;;12.10;7.22;;;;;;;20.00;68.07;102723.75;5114289;27;20051;-58
2022/08/09 08:42:33;;;;;;;11.10;7.20;;;;;;;20.08;67.48;102724.69;5103666;28;20087;-59
2022/08/09 08:45:00;;;;;;;10.65;7.40;;;;;;;20.19;68.16;102724.28;5109095;28;20484;-58
2022/08/09 08:47:27;;;;;;;12.35;6.60;;;;;;;20.18;65.62;102714.50;5102294;28;20147;-58
2022/08/09 08:49:55;;;;;;;10.35;6.55;;;;;;;20.23;65.39;102730.97;5110678;27;20027;-59
2022/08/09 08:52:24;;;;;;;11.48;7.20;;;;;;;20.16;66.54;102725.47;5110516;28;20088;-57
2022/08/09 08:54:52;;;;;;;12.25;7.10;;;;;;;20.19;68.79;102718.91;5110181;28;20036;-58
2022/08/09 08:57:18;;;;;;;10.02;6.30;;;;;;;20.20;65.25;102722.41;5108405;28;20038;-58
2022/08/09 08:59:44;;;;;;;12.68;5.85;;;;;;;20.36;67.32;102721.44;5107141;27;20043;-58
2022/08/09 09:02:20;;;;;;;12.27;5.80;;;;;;;20.43;66.50;102733.19;5104898;28;20032;-57
2022/08/09 09:04:46;;;;;;;10.57;6.30;;;;;;;20.37;66.25;102733.91;5104274;28;20061;-57
2022/08/09 09:07:14;;;;;;;11.27;6.57;;;;;;;20.45;68.05;102736.53;5104653;28;20028;-59
2022/08/09 09:09:43;;;;;;;10.07;6.03;;;;;;;20.54;66.60;102745.38;5116466;27;20023;-58
2022/08/09 09:12:09;;;;;;;7.70;4.85;;;;;;;20.62;66.00;102736.38;5117572;27;20031;-57
2022/08/09 09:14:34;;;;;;;7.88;4.82;;;;;;;20.70;66.35;102741.69;5109649;28;20080;-58
2022/08/09 09:17:01;;;;;;;7.25;5.25;;;;;;;20.68;62.88;102730.25;5109606;28;20108;-58
2022/08/09 09:19:28;;;;;;;9.35;5.05;;;;;;;20.72;66.42;102736.94;5109637;27;20509;-57
2022/08/09 09:22:18;;;;;;;9.52;4.30;;;;;;;20.82;61.13;102745.63;5107172;28;20035;-60
2022/08/09 09:24:56;;;;;;;6.90;4.22;;;;;;;20.79;60.64;102748.69;5103597;28;20502;-58
2022/08/09 09:27:25;;;;;;;7.47;4.20;;;;;;;20.98;62.51;102749.22;5110594;28;20036;-58
2022/08/09 09:29:52;;;;;;;6.35;3.70;;;;;;;21.03;62.05;102741.41;5104560;28;20035;-58
2022/08/09 09:32:19;;;;;;;6.47;3.35;;;;;;;21.07;59.59;102745.38;5103839;28;20106;-58
2022/08/09 09:35:01;;;;;;;10.38;4.03;;;;;;;21.09;60.08;102743.34;5110235;28;20076;-59
2022/08/09 09:37:28;;;;;;;5.60;3.23;;;;;;;21.28;60.18;102735.72;5102352;28;20043;-58
2022/08/09 09:39:54;;;;;;;6.45;3.10;;;;;;;21.40;61.77;102737.94;5101988;28;20028;-60
2022/08/09 09:42:24;;;;;;;4.85;3.10;;;;;;;21.49;59.37;102739.50;5098792;28;20038;-57
2022/08/09 09:45:01;;;;;;;7.72;3.00;;;;;;;21.52;57.64;102733.75;5109273;28;20052;-59
2022/08/09 09:47:27;;;;;;;5.60;3.00;;;;;;;21.73;59.07;102729.44;5110870;28;20043;-58
2022/08/09 09:49:54;;;;;;;9.57;3.40;;;;;;;21.90;60.05;102738.97;5108792;28;20031;-59
2022/08/09 09:52:20;;;;;;;7.47;3.45;;;;;;;21.86;57.12;102732.25;5101915;28;20026;-59
2022/08/09 09:54:46;;;;;;;5.18;2.90;;;;;;;21.95;56.23;102740.25;5103580;28;20024;-58
2022/08/09 09:57:23;;;;;;;6.55;2.60;;;;;;;21.90;55.00;102738.97;5105767;28;20091;-58
2022/08/09 09:59:53;;;;;;;5.78;2.60;;;;;;;21.97;55.24;102738.19;5108732;27;20020;-57
2022/08/09 10:02:20;;;;;;;7.68;2.70;;;;;;;22.01;54.65;102734.91;5107286;28;20034;-58
2022/08/09 10:05:02;;;;;;;5.50;2.60;;;;;;;22.05;55.13;102740.75;5107237;28;20036;-59
2022/08/09 10:07:27;;;;;;;5.20;2.50;;;;;;;22.14;54.27;102745.03;5110280;28;20035;-59
2022/08/09 10:09:55;;;;;;;5.47;2.28;;;;;;;22.10;52.85;102738.31;5100800;28;20293;-58
2022/08/09 10:12:28;;;;;;;4.70;2.17;;;;;;;22.27;53.52;102743.47;5107007;28;20035;-59
2022/08/09 10:15:14;;;;;;;4.63;2.08;;;;;;;22.36;52.66;102744.19;5104692;28;20020;-59
2022/08/09 10:17:41;;;;;;;3.75;2.00;;;;;;;22.42;50.57;102743.41;5109640;28;20023;-61
2022/08/09 10:20:16;;;;;;;5.03;2.03;;;;;;;22.56;50.88;102741.69;5109694;28;20027;-58
2022/08/09 10:22:41;;;;;;;5.00;2.30;;;;;;;22.58;52.54;102728.78;5109911;28;20447;-58
2022/08/09 10:25:08;;;;;;;4.13;2.10;;;;;;;22.74;51.15;102730.34;5111181;28;20076;-57
2022/08/09 10:27:34;;;;;;;4.28;2.20;;;;;;;22.78;51.26;102733.50;5082941;28;20027;-58
2022/08/09 10:30:05;;;;;;;5.40;2.10;;;;;;;22.83;51.42;102726.47;5104898;28;20047;-58
2022/08/09 10:32:31;;;;;;;3.63;1.85;;;;;;;22.90;49.62;102731.91;5108832;28;20040;-59
2022/08/09 10:34:57;;;;;;;4.20;2.00;;;;;;;22.92;48.17;102729.84;5114445;28;20031;-58
2022/08/09 10:37:23;;;;;;;3.08;1.70;;;;;;;23.01;47.73;102727.84;5110101;28;20019;-59
2022/08/09 10:39:49;;;;;;;3.70;1.90;;;;;;;23.07;46.64;102726.19;5108129;28;20032;-59
2022/08/09 10:42:15;;;;;;;3.75;1.88;;;;;;;23.16;47.25;102719.59;5106917;28;20035;-60
2022/08/09 10:44:45;;;;;;;6.90;2.08;;;;;;;23.08;47.16;102715.16;5112450;27;20051;-58
2022/08/09 10:47:56;;;;;;;3.70;1.95;;;;;;;23.10;48.99;102720.38;5107866;28;20115;-59
2022/08/09 10:53:31;;;;;;;;;;;;;;;23.26;48.12;102708.38;5112256;27;20031;-58
2022/08/09 10:56:22;;;;;;;2.17;1.77;;;;;;;23.30;49.02;102703.41;5109119;28;19922;-59
2022/08/09 10:58:48;;;;;;;2.05;1.65;;;;;;;23.51;46.89;102706.03;5109802;27;20437;-58
2022/08/09 11:01:31;;;;;;;4.38;1.77;;;;;;;23.66;47.40;102702.28;5098155;28;20036;-58
2022/08/09 11:04:09;;;;;;;4.07;1.80;;;;;;;23.74;46.43;102707.50;5106392;27;20059;-58
2022/08/09 11:06:36;;;;;;;2.63;1.63;;;;;;;23.72;45.52;102701.47;5109352;28;20024;-59
2022/08/09 11:09:06;;;;;;;4.57;1.90;;;;;;;23.75;46.18;102695.66;5109596;28;20020;-57
2022/08/09 11:11:53;;;;;;;3.13;1.65;;;;;;;23.88;46.97;102708.38;5098994;27;20468;-58
2022/08/09 11:14:37;;;;;;;3.53;1.90;;;;;;;23.96;46.01;102707.34;5106583;27;20102;-58
2022/08/09 11:17:31;;;;;;;6.88;1.95;;;;;;;24.12;44.90;102716.16;5115079;28;20036;-58
2022/08/09 11:20:06;;;;;;;3.28;1.77;;;;;;;24.13;45.06;102702.38;5108315;27;20515;-59
2022/08/09 11:22:41;;;;;;;3.38;1.60;;;;;;;24.02;43.51;102716.53;5108120;27;20027;-59
2022/08/09 11:25:14;;;;;;;3.85;1.70;;;;;;;23.96;45.00;102696.53;5105744;28;20047;-59
2022/08/09 11:27:48;;;;;;;2.47;1.60;;;;;;;24.02;45.23;102700.25;5114568;28;20106;-59